Time;durP1;ratioP1;P1;durP2;ratioP2;P2;SDS_P1;SDS_P2;PMS_P1;PMS_P2;Temp;Humidity;BMP_temperature;BMP_pressure;BME280_temperature;BME280_humidity;BME280_pressure;Samples;Min_cycle;Max_cycle;Signal;HPM_P1;HPM_P2
2023/04/09 00:01:17;;;;;;;12.60;9.18;;;;;;;8.94;100.00;100568.39;1700205;82;21733;-90
2023/04/09 00:04:24;;;;;;;10.98;9.05;;;;;;;8.93;100.00;100568.86;1703616;82;21252;-89
2023/04/09 00:07:30;;;;;;;15.32;8.98;;;;;;;8.95;100.00;100566.85;1673071;83;21220;-79
2023/04/09 00:10:36;;;;;;;20.37;9.93;;;;;;;8.99;100.00;100556.96;1668581;83;21208;-79
2023/04/09 00:13:44;;;;;;;13.95;9.10;;;;;;;9.09;100.00;100552.28;1693751;82;21200;-80
2023/04/09 00:16:50;;;;;;;12.10;9.50;;;;;;;9.15;100.00;100550.27;1658935;84;21208;-89
2023/04/09 00:19:55;;;;;;;16.07;10.03;;;;;;;9.29;100.00;100547.45;1698573;82;21212;-79
2023/04/09 00:23:01;;;;;;;14.43;8.88;;;;;;;9.30;100.00;100544.55;1677411;83;21224;-79
2023/04/09 00:26:09;;;;;;;12.33;9.20;;;;;;;9.21;100.00;100542.27;1696110;82;21801;-89
2023/04/09 00:29:14;;;;;;;12.33;9.58;;;;;;;9.18;100.00;100551.31;1701635;82;21801;-79
2023/04/09 00:32:20;;;;;;;13.95;8.85;;;;;;;9.23;100.00;100548.11;1700506;82;21180;-80
2023/04/09 00:35:26;;;;;;;15.93;10.05;;;;;;;9.09;100.00;100547.67;1662941;83;21224;-80
2023/04/09 00:38:32;;;;;;;12.85;9.48;;;;;;;9.21;100.00;100542.78;1670579;83;21252;-79
2023/04/09 00:41:38;;;;;;;20.17;9.55;;;;;;;9.14;100.00;100550.77;1640996;85;21212;-80
2023/04/09 00:44:43;;;;;;;14.00;9.00;;;;;;;9.08;100.00;100548.70;1704903;81;21247;-90
2023/04/09 00:47:49;;;;;;;16.02;9.20;;;;;;;9.29;100.00;100552.39;1703098;82;21813;-79
2023/04/09 00:50:54;;;;;;;13.08;9.00;;;;;;;9.22;100.00;100554.05;1694466;82;21817;-80
2023/04/09 00:56:27;;;;;;;15.03;10.08;;;;;;;9.34;100.00;100556.85;1699964;82;21207;-90
2023/04/09 01:01:59;;;;;;;18.07;10.43;;;;;;;8.99;100.00;100551.50;1704391;81;21258;-90
2023/04/09 01:10:48;;;;;;;15.05;9.45;;;;;;;8.87;100.00;100557.75;1688077;82;21283;-79
2023/04/09 01:14:09;;;;;;;12.05;9.35;;;;;;;8.79;100.00;100565.86;1700626;81;21209;-89
2023/04/09 01:17:18;;;;;;;;;;;;;;;8.81;100.00;100571.52;1696690;82;21229;-89
2023/04/09 01:20:42;;;;;;;16.57;10.03;;;;;;;8.63;100.00;100561.14;1668835;83;20209;-89
2023/04/09 01:24:29;;;;;;;21.87;11.85;;;;;;;8.59;100.00;100566.55;1668220;84;21243;-90
2023/04/09 01:27:39;;;;;;;17.17;11.10;;;;;;;8.59;100.00;100567.92;1678028;83;21221;-78
2023/04/09 01:30:46;;;;;;;18.05;10.78;;;;;;;8.57;100.00;100566.72;1651056;84;21220;-89
2023/04/09 01:33:52;;;;;;;13.75;10.38;;;;;;;8.55;100.00;100559.70;1694618;81;21755;-90
2023/04/09 01:39:29;;;;;;;13.95;10.15;;;;;;;8.64;100.00;100560.12;1683135;84;21268;-89
2023/04/09 01:42:34;;;;;;;15.38;10.78;;;;;;;8.28;100.00;100565.58;1698897;81;21184;-79
2023/04/09 01:45:41;;;;;;;13.62;10.93;;;;;;;8.30;100.00;100570.86;1706623;82;21228;-79
2023/04/09 01:48:47;;;;;;;21.82;11.05;;;;;;;8.41;100.00;100561.96;1686103;83;21749;-89
2023/04/09 01:51:53;;;;;;;16.23;10.78;;;;;;;8.41;100.00;100559.23;1673403;83;21173;-89
2023/04/09 01:54:59;;;;;;;19.32;11.33;;;;;;;8.36;100.00;100558.84;1648609;83;21758;-87
2023/04/09 01:58:04;;;;;;;16.97;11.38;;;;;;;8.30;100.00;100562.17;1687513;81;21209;-89
2023/04/09 02:01:17;;;;;;;16.62;10.40;;;;;;;8.26;100.00;100556.68;1688395;81;21193;-78
2023/04/09 02:04:31;;;;;;;18.25;10.80;;;;;;;8.22;100.00;100553.91;1677487;84;21193;-78
2023/04/09 02:10:06;;;;;;;13.65;10.32;;;;;;;8.10;100.00;100553.80;1706383;82;21209;-78
2023/04/09 02:15:37;;;;;;;18.80;11.40;;;;;;;8.02;100.00;100553.20;1691561;82;21793;-89
2023/04/09 02:18:42;;;;;;;17.27;11.25;;;;;;;8.01;100.00;100554.22;1693512;81;21188;-78
2023/04/09 02:24:15;;;;;;;20.90;12.40;;;;;;;8.20;100.00;100557.31;1703756;82;21275;-89
2023/04/09 02:29:50;;;;;;;23.02;11.88;;;;;;;8.28;100.00;100564.22;1698751;82;21251;-78
2023/04/09 02:35:22;;;;;;;15.35;11.68;;;;;;;8.51;100.00;100564.60;1670470;84;21338;-89
2023/04/09 02:38:28;;;;;;;14.50;12.30;;;;;;;8.48;100.00;100562.72;1709722;81;21218;-79
2023/04/09 02:41:33;;;;;;;18.23;12.55;;;;;;;8.52;100.00;100569.58;1699744;81;21217;-89
2023/04/09 02:44:40;;;;;;;17.27;12.75;;;;;;;8.37;100.00;100575.55;1695641;81;21784;-89
2023/04/09 02:47:46;;;;;;;17.45;11.65;;;;;;;8.40;100.00;100577.12;1675058;83;21237;-79
2023/04/09 02:50:56;;;;;;;22.70;13.17;;;;;;;8.44;100.00;100576.66;1680479;84;21215;-89
2023/04/09 02:54:02;;;;;;;14.78;11.95;;;;;;;8.49;100.00;100579.42;1677279;83;21204;-79
2023/04/09 02:57:08;;;;;;;18.95;13.58;;;;;;;8.51;100.00;100580.11;1672973;82;21349;-78
2023/04/09 03:02:42;;;;;;;28.98;15.00;;;;;;;8.57;100.00;100588.53;1658559;82;21236;-89
2023/04/09 03:05:48;;;;;;;20.57;12.93;;;;;;;8.65;100.00;100590.45;1642106;84;21266;-89
2023/04/09 03:08:54;;;;;;;19.98;14.58;;;;;;;8.61;100.00;100587.69;1645786;85;21734;-78
2023/04/09 03:14:31;;;;;;;21.45;14.23;;;;;;;8.47;100.00;100595.94;1680567;84;21304;-78
2023/04/09 03:17:36;;;;;;;21.05;14.75;;;;;;;8.54;100.00;100597.53;1668625;83;21901;-78
2023/04/09 03:20:35;;;;;;;20.80;13.98;;;;;;;8.59;100.00;100601.49;1682123;83;21769;-88
2023/04/09 03:23:41;;;;;;;26.23;14.53;;;;;;;8.75;100.00;100601.28;1674473;83;21824;-79
2023/04/09 03:29:14;;;;;;;23.70;14.68;;;;;;;8.62;100.00;100602.55;1684569;84;21327;-79
2023/04/09 03:34:49;;;;;;;22.85;15.23;;;;;;;8.73;100.00;100601.95;1696966;81;21773;-88
2023/04/09 03:40:22;;;;;;;29.67;17.25;;;;;;;8.65;100.00;100602.22;1703824;81;21856;-79
2023/04/09 03:45:55;;;;;;;29.32;16.27;;;;;;;8.74;100.00;100600.42;1691444;84;21327;-77
2023/04/09 03:49:01;;;;;;;23.12;16.20;;;;;;;8.78;100.00;100605.06;1674831;83;21260;-78
2023/04/09 03:54:33;;;;;;;25.20;15.88;;;;;;;8.89;100.00;100604.80;1699393;82;21279;-88
2023/04/09 04:00:07;;;;;;;28.23;17.27;;;;;;;8.86;100.00;100607.36;1676061;83;21779;-89
2023/04/09 04:03:08;;;;;;;29.30;15.60;;;;;;;8.90;100.00;100614.22;1696938;82;21099;-90
2023/04/09 04:08:45;;;;;;;33.42;16.80;;;;;;;8.91;100.00;100620.53;1709058;82;21307;-92
2023/04/09 04:14:23;;;;;;;29.48;16.32;;;;;;;8.91;100.00;100617.80;1702816;82;21216;-90
2023/04/09 04:19:57;;;;;;;25.10;15.72;;;;;;;9.06;100.00;100628.48;1693267;82;21291;-91
2023/04/09 04:25:31;;;;;;;25.85;16.15;;;;;;;8.89;100.00;100628.88;1701317;82;21278;-92
2023/04/09 04:31:09;;;;;;;31.33;17.20;;;;;;;8.94;100.00;100635.23;1697036;82;21187;-77
2023/04/09 04:36:59;;;;;;;26.85;16.17;;;;;;;9.08;100.00;100640.12;1630516;85;21212;-77
2023/04/09 04:40:06;;;;;;;40.33;19.27;;;;;;;8.89;100.00;100634.34;1645934;85;21193;-77
2023/04/09 04:43:14;;;;;;;30.52;17.95;;;;;;;8.90;100.00;100636.55;1677500;81;21232;-77
2023/04/09 04:48:49;;;;;;;24.25;16.85;;;;;;;9.04;100.00;100636.50;1707610;82;21261;-77
2023/04/09 04:51:55;;;;;;;33.53;17.73;;;;;;;9.05;100.00;100643.66;1704072;82;21726;-76
2023/04/09 04:57:27;;;;;;;26.75;19.90;;;;;;;9.01;100.00;100643.11;1708419;82;21768;-92
2023/04/09 05:03:02;;;;;;;27.87;17.62;;;;;;;9.02;100.00;100649.42;1714280;82;21227;-77
2023/04/09 05:06:14;;;;;;;29.75;18.35;;;;;;;9.09;100.00;100650.52;1690545;81;21737;-92
2023/04/09 05:09:20;;;;;;;29.85;19.37;;;;;;;9.13;100.00;100659.59;1693961;81;21218;-90
2023/04/09 05:12:29;;;;;;;24.95;17.07;;;;;;;9.35;100.00;100658.20;1670321;84;21252;-91
2023/04/09 05:15:36;;;;;;;23.60;16.40;;;;;;;9.28;100.00;100660.39;1641149;85;21244;-91
2023/04/09 05:18:42;;;;;;;27.58;17.75;;;;;;;9.35;100.00;100662.81;1646896;85;21309;-91
2023/04/09 05:21:49;;;;;;;26.02;17.02;;;;;;;9.39;100.00;100665.06;1687241;82;22137;-77
2023/04/09 05:24:55;;;;;;;27.42;18.87;;;;;;;9.39;100.00;100663.70;1680088;83;21260;-90
2023/04/09 05:28:04;;;;;;;32.50;19.02;;;;;;;9.50;100.00;100669.90;1644483;85;21260;-87
2023/04/09 05:31:11;;;;;;;25.82;17.60;;;;;;;9.56;100.00;100671.50;1672726;83;21735;-78
2023/04/09 05:34:19;;;;;;;28.50;17.57;;;;;;;9.62;100.00;100671.36;1668880;83;21769;-88
2023/04/09 05:37:25;;;;;;;28.35;17.37;;;;;;;9.73;100.00;100677.39;1633774;84;21859;-87
2023/04/09 05:40:30;;;;;;;26.07;18.15;;;;;;;9.78;100.00;100675.53;1683202;84;21187;-88
2023/04/09 05:43:36;;;;;;;27.30;17.10;;;;;;;9.95;100.00;100681.44;1664519;83;21212;-88
2023/04/09 05:46:42;;;;;;;31.70;16.67;;;;;;;10.06;100.00;100690.36;1681530;83;21225;-78
2023/04/09 05:49:50;;;;;;;25.57;16.40;;;;;;;9.97;100.00;100694.45;1696895;81;21239;-79
2023/04/09 05:52:57;;;;;;;24.18;16.48;;;;;;;9.94;100.00;100700.74;1615033;85;21228;-88
2023/04/09 05:56:04;;;;;;;34.85;18.80;;;;;;;9.98;100.00;100704.36;1694746;82;21790;-87
2023/04/09 05:59:11;;;;;;;31.40;18.40;;;;;;;10.07;100.00;100700.27;1697656;82;21864;-79
2023/04/09 06:02:17;;;;;;;31.82;20.68;;;;;;;10.07;100.00;100705.26;1701776;82;21342;-90
2023/04/09 06:05:24;;;;;;;41.25;23.07;;;;;;;10.19;100.00;100705.30;1707482;82;21247;-78
2023/04/09 06:08:32;;;;;;;48.05;26.97;;;;;;;10.19;100.00;100708.03;1636957;84;21207;-78
2023/04/09 06:14:04;;;;;;;46.37;24.37;;;;;;;10.30;100.00;100709.63;1650950;85;21271;-90
2023/04/09 06:19:36;;;;;;;52.48;27.07;;;;;;;10.54;100.00;100710.73;1708400;83;21267;-89
2023/04/09 06:25:08;;;;;;;56.30;31.10;;;;;;;10.80;100.00;100718.34;1651680;84;21311;-89
2023/04/09 06:28:13;;;;;;;65.72;35.88;;;;;;;10.91;100.00;100723.48;1685844;83;21741;-90
2023/04/09 06:33:46;;;;;;;86.55;47.05;;;;;;;11.09;100.00;100719.75;1680755;84;21243;-88
2023/04/09 06:39:20;;;;;;;82.80;41.33;;;;;;;11.14;100.00;100716.84;1685835;84;21279;-78
2023/04/09 06:42:25;;;;;;;83.62;41.25;;;;;;;11.09;100.00;100719.75;1670939;83;21260;-88
2023/04/09 06:45:43;;;;;;;100.45;46.25;;;;;;;11.21;100.00;100720.62;1646628;85;21668;-78
2023/04/09 06:48:48;;;;;;;72.45;39.18;;;;;;;11.19;100.00;100719.07;1643538;84;21250;-89
2023/04/09 06:51:55;;;;;;;55.12;30.82;;;;;;;11.18;100.00;100725.58;1644399;84;21332;-79
2023/04/09 06:55:00;;;;;;;33.55;20.00;;;;;;;11.30;100.00;100734.33;1640560;85;21801;-78
2023/04/09 06:58:06;;;;;;;26.65;16.97;;;;;;;11.24;100.00;100737.21;1641566;84;21836;-79
2023/04/09 07:01:13;;;;;;;29.92;16.12;;;;;;;11.31;100.00;100736.89;1703806;82;21204;-88
2023/04/09 07:06:45;;;;;;;29.57;16.02;;;;;;;11.14;100.00;100742.85;1690593;82;21139;-79
2023/04/09 07:12:21;;;;;;;25.82;16.00;;;;;;;11.15;100.00;100746.44;1703241;82;21193;-79
2023/04/09 07:17:52;;;;;;;19.50;13.78;;;;;;;11.07;100.00;100752.78;1702107;82;21327;-79
2023/04/09 07:20:58;;;;;;;20.40;11.88;;;;;;;11.10;100.00;100748.31;1695781;82;21205;-79
2023/04/09 07:26:29;;;;;;;24.57;12.70;;;;;;;11.03;100.00;100748.66;1703321;82;21273;-79
2023/04/09 07:29:35;;;;;;;17.50;12.50;;;;;;;10.89;100.00;100743.34;1696411;82;21249;-78
2023/04/09 07:32:41;;;;;;;16.60;12.10;;;;;;;10.97;100.00;100740.62;1703487;82;21794;-88
2023/04/09 07:35:47;;;;;;;19.85;11.35;;;;;;;10.91;100.00;100744.01;1699458;82;21265;-78
2023/04/09 07:38:54;;;;;;;20.30;12.30;;;;;;;11.11;100.00;100744.58;1665998;84;21315;-89
2023/04/09 07:44:26;;;;;;;18.45;11.38;;;;;;;11.35;100.00;100742.37;1699152;81;21311;-91
2023/04/09 07:52:31;;;;;;;13.90;9.15;;;;;;;11.51;100.00;100751.94;1688890;84;21761;-80
2023/04/09 07:55:36;;;;;;;17.95;11.18;;;;;;;11.45;100.00;100747.16;1663511;84;21197;-80
2023/04/09 07:58:43;;;;;;;12.80;8.98;;;;;;;11.41;100.00;100744.93;1683328;83;21198;-80
2023/04/09 08:01:50;;;;;;;19.67;9.38;;;;;;;11.25;100.00;100753.48;1682925;83;21293;-89
2023/04/09 08:04:55;;;;;;;15.35;8.93;;;;;;;11.24;100.00;100753.16;1678256;84;22279;-87
2023/04/09 08:08:02;;;;;;;15.98;9.55;;;;;;;11.28;100.00;100760.49;1679085;83;21755;-89
2023/04/09 08:11:08;;;;;;;16.57;9.15;;;;;;;11.16;100.00;100759.98;1680763;83;21208;-90
2023/04/09 08:14:14;;;;;;;15.75;8.83;;;;;;;11.11;100.00;100760.16;1681423;84;21738;-89
2023/04/09 08:17:21;;;;;;;19.95;8.88;;;;;;;11.09;100.00;100755.34;1693523;82;21252;-79
2023/04/09 08:20:26;;;;;;;13.25;7.53;;;;;;;11.13;100.00;100758.09;1696271;82;21204;-91
2023/04/09 08:23:34;;;;;;;9.95;7.05;;;;;;;11.10;100.00;100761.16;1662090;84;21249;-80
2023/04/09 08:26:41;;;;;;;11.73;7.35;;;;;;;11.14;100.00;100763.38;1637958;85;21232;-90
2023/04/09 08:29:47;;;;;;;16.27;8.20;;;;;;;11.17;100.00;100764.95;1692401;81;21733;-79
2023/04/09 08:32:52;;;;;;;13.98;7.80;;;;;;;11.13;100.00;100771.27;1679479;83;21757;-79
2023/04/09 08:35:58;;;;;;;15.10;8.13;;;;;;;11.00;100.00;100772.26;1667486;83;21205;-87
2023/04/09 08:39:04;;;;;;;11.10;7.47;;;;;;;10.96;100.00;100770.88;1704776;82;21252;-80
2023/04/09 08:42:11;;;;;;;12.95;7.50;;;;;;;11.11;100.00;100770.59;1677471;83;21231;-79
2023/04/09 08:45:18;;;;;;;13.22;7.78;;;;;;;11.02;100.00;100770.23;1639678;84;21204;-89
2023/04/09 08:48:24;;;;;;;9.63;6.95;;;;;;;10.95;100.00;100774.64;1658430;83;21769;-90
2023/04/09 08:54:04;;;;;;;8.48;6.70;;;;;;;10.99;100.00;100776.03;1684733;84;21260;-91
2023/04/09 08:57:13;;;;;;;12.05;6.95;;;;;;;11.10;100.00;100774.84;1675559;83;21217;-89
2023/04/09 09:02:45;;;;;;;13.22;6.85;;;;;;;11.05;100.00;100777.23;1646000;85;21260;-90
2023/04/09 09:05:52;;;;;;;11.60;6.55;;;;;;;11.10;100.00;100770.22;1639039;85;21793;-89
2023/04/09 09:09:17;;;;;;;16.37;6.72;;;;;;;11.08;100.00;100772.80;1686626;82;21788;-89
2023/04/09 09:12:38;;;;;;;9.65;5.60;;;;;;;11.11;100.00;100766.48;1662779;83;21268;-90
2023/04/09 09:15:43;;;;;;;10.88;6.25;;;;;;;11.13;100.00;100769.04;1685332;83;21754;-78
2023/04/09 09:18:51;;;;;;;7.78;5.45;;;;;;;11.19;100.00;100771.09;1676711;84;21200;-78
2023/04/09 09:22:02;;;;;;;12.43;5.65;;;;;;;11.27;100.00;100767.00;1684561;83;21213;-78
2023/04/09 09:25:09;;;;;;;9.48;5.58;;;;;;;11.38;100.00;100768.02;1658258;84;21281;-78
2023/04/09 09:28:18;;;;;;;7.85;4.90;;;;;;;11.60;100.00;100769.23;1642481;85;21216;-78
2023/04/09 09:31:26;;;;;;;10.90;4.62;;;;;;;11.97;100.00;100764.60;1702718;82;21781;-78
2023/04/09 09:34:31;;;;;;;11.33;5.20;;;;;;;12.11;100.00;100767.66;1692306;82;21180;-78
2023/04/09 09:37:38;;;;;;;14.23;4.70;;;;;;;12.32;100.00;100772.56;1705443;82;21244;-78
2023/04/09 09:40:44;;;;;;;7.47;4.35;;;;;;;12.48;100.00;100762.39;1679747;83;21207;-89
2023/04/09 09:43:51;;;;;;;4.40;3.50;;;;;;;12.67;100.00;100758.89;1688204;82;21776;-89
2023/04/09 09:46:57;;;;;;;14.73;6.72;;;;;;;12.73;100.00;100763.65;1694566;82;21243;-78
2023/04/09 09:50:03;;;;;;;6.15;4.35;;;;;;;12.86;100.00;100763.92;1698322;82;21236;-78
2023/04/09 09:53:12;;;;;;;4.12;3.50;;;;;;;12.97;100.00;100769.00;1696231;82;21757;-78
2023/04/09 09:56:31;;;;;;;8.23;3.80;;;;;;;13.09;100.00;100764.48;1692948;82;21208;-78
2023/04/09 09:59:38;;;;;;;7.22;4.65;;;;;;;13.01;100.00;100761.27;1663226;83;21232;-78
2023/04/09 10:02:57;;;;;;;12.45;5.55;;;;;;;13.11;100.00;100766.52;1693742;82;21193;-88
2023/04/09 10:06:03;;;;;;;10.08;6.17;;;;;;;13.04;100.00;100758.16;1688439;81;21738;-78
2023/04/09 10:09:11;;;;;;;9.63;7.00;;;;;;;13.03;100.00;100761.92;1695719;82;21259;-78
2023/04/09 10:12:15;;;;;;;9.20;6.55;;;;;;;12.91;100.00;100764.23;1694654;82;22078;-78
2023/04/09 10:20:25;;;;;;;9.60;6.22;;;;;;;13.01;100.00;100768.98;1697534;82;21196;-79
2023/04/09 10:23:47;;;;;;;11.12;5.90;;;;;;;13.13;100.00;100769.95;1703209;80;21363;-78
2023/04/09 10:26:53;;;;;;;10.45;6.78;;;;;;;13.19;100.00;100768.70;1709060;82;21765;-79
2023/04/09 10:30:04;;;;;;;16.02;8.25;;;;;;;13.27;100.00;100769.20;1693155;82;21223;-89
2023/04/09 10:33:20;;;;;;;10.03;8.03;;;;;;;13.19;100.00;100769.22;1691441;82;21236;-80
2023/04/09 10:36:26;;;;;;;15.63;9.25;;;;;;;13.00;100.00;100771.91;1665899;84;21260;-89
2023/04/09 10:39:38;;;;;;;13.80;8.73;;;;;;;12.95;100.00;100766.11;1679797;83;21802;-80
2023/04/09 10:42:45;;;;;;;21.62;9.25;;;;;;;12.84;100.00;100770.62;1668847;83;21836;-79
2023/04/09 10:45:53;;;;;;;14.25;9.35;;;;;;;12.86;100.00;100768.56;1659464;83;21236;-88
2023/04/09 10:49:19;;;;;;;19.48;9.28;;;;;;;12.77;100.00;100777.36;1646092;85;21322;-89
2023/04/09 10:52:25;;;;;;;14.83;9.70;;;;;;;12.91;100.00;100775.22;1704720;82;21197;-88
2023/04/09 10:55:47;;;;;;;16.07;9.88;;;;;;;12.70;100.00;100773.12;1660508;84;21197;-79
2023/04/09 10:58:54;;;;;;;13.25;9.53;;;;;;;12.72;100.00;100774.30;1683608;84;21787;-90
2023/04/09 11:02:00;;;;;;;12.20;9.10;;;;;;;12.47;100.00;100773.04;1673717;84;21213;-79
2023/04/09 11:05:27;;;;;;;19.10;10.28;;;;;;;12.22;100.00;100771.39;1696934;83;21781;-89
2023/04/09 11:08:41;;;;;;;14.23;10.08;;;;;;;12.11;100.00;100769.89;1678226;83;21248;-89
2023/04/09 11:11:47;;;;;;;15.28;9.78;;;;;;;12.04;100.00;100772.97;1694058;82;21710;-90
2023/04/09 11:14:52;;;;;;;12.73;9.48;;;;;;;12.02;100.00;100767.67;1692151;82;21758;-90
2023/04/09 11:17:58;;;;;;;14.50;9.63;;;;;;;11.96;100.00;100771.64;1675884;83;21197;-84
2023/04/09 11:23:35;;;;;;;11.15;8.00;;;;;;;11.70;100.00;100760.84;1706073;81;21223;-79
2023/04/09 11:26:44;;;;;;;15.03;8.25;;;;;;;11.74;100.00;100770.42;1667195;84;21208;-89
2023/04/09 11:32:16;;;;;;;9.40;7.05;;;;;;;11.55;100.00;100763.94;1672094;84;21223;-80
2023/04/09 11:37:52;;;;;;;8.58;6.87;;;;;;;11.46;100.00;100748.86;1674061;83;21252;-80
2023/04/09 11:43:25;;;;;;;10.20;7.10;;;;;;;11.52;100.00;100753.64;1648897;85;21271;-80
2023/04/09 11:49:01;;;;;;;12.17;7.60;;;;;;;11.43;100.00;100753.33;1712546;82;21777;-80
2023/04/09 11:54:38;;;;;;;13.90;8.80;;;;;;;11.51;100.00;100756.56;1702313;82;21856;-89
2023/04/09 11:57:50;;;;;;;11.63;8.70;;;;;;;11.40;100.00;100751.44;1685634;81;21185;-79
2023/04/09 12:00:58;;;;;;;11.05;7.80;;;;;;;11.39;100.00;100753.33;1673123;83;21209;-88
2023/04/09 12:04:05;;;;;;;10.10;7.87;;;;;;;11.43;100.00;100751.08;1677105;83;21778;-88
2023/04/09 12:07:16;;;;;;;12.73;8.33;;;;;;;11.51;100.00;100749.72;1676906;84;21306;-80
2023/04/09 12:12:54;;;;;;;11.10;8.13;;;;;;;11.60;100.00;100742.36;1674899;85;21568;-88
2023/04/09 12:16:05;;;;;;;8.68;7.45;;;;;;;11.62;100.00;100738.91;1651894;85;21216;-88
2023/04/09 12:19:13;;;;;;;11.13;7.57;;;;;;;11.68;100.00;100737.73;1665411;85;21280;-78
2023/04/09 12:22:19;;;;;;;11.40;7.95;;;;;;;11.66;100.00;100734.29;1664600;85;21807;-86
2023/04/09 12:27:55;;;;;;;14.43;8.45;;;;;;;11.68;100.00;100740.47;1668429;85;21307;-79
2023/04/09 12:31:02;;;;;;;12.33;9.33;;;;;;;11.69;100.00;100736.69;1665810;85;21300;-78
2023/04/09 12:34:08;;;;;;;14.73;9.95;;;;;;;11.50;100.00;100734.31;1678949;83;21414;-78
2023/04/09 12:37:19;;;;;;;11.05;9.05;;;;;;;11.36;100.00;100731.75;1693868;82;21254;-89
2023/04/09 12:40:26;;;;;;;14.95;9.48;;;;;;;11.38;100.00;100728.31;1693734;82;21712;-88
2023/04/09 12:43:32;;;;;;;13.08;10.30;;;;;;;11.41;100.00;100729.87;1681176;81;21273;-79
2023/04/09 12:46:37;;;;;;;13.80;9.68;;;;;;;11.45;100.00;100726.61;1663263;84;21235;-88
2023/04/09 12:49:45;;;;;;;12.35;9.43;;;;;;;11.42;100.00;100726.95;1696651;81;21772;-89
2023/04/09 12:55:17;;;;;;;12.75;9.30;;;;;;;11.67;100.00;100726.44;1708555;82;21330;-89
2023/04/09 13:00:51;;;;;;;16.45;9.35;;;;;;;11.83;100.00;100726.09;1707483;82;21273;-80
2023/04/09 13:03:57;;;;;;;14.03;10.03;;;;;;;11.73;100.00;100720.77;1687436;81;21240;-81
2023/04/09 13:07:04;;;;;;;11.70;9.13;;;;;;;11.74;100.00;100721.95;1704905;82;21224;-80
2023/04/09 13:10:11;;;;;;;14.85;10.20;;;;;;;11.82;100.00;100719.75;1709796;81;21239;-90
2023/04/09 13:13:18;;;;;;;15.90;10.32;;;;;;;11.72;100.00;100710.33;1674443;83;21770;-89
2023/04/09 13:16:24;;;;;;;17.25;9.88;;;;;;;11.65;100.00;100720.25;1690122;81;21205;-89
2023/04/09 13:19:06;;;;;;;14.18;9.58;;;;;;;11.52;100.00;100720.77;1667721;83;21207;-79
2023/04/09 13:22:12;;;;;;;18.20;9.65;;;;;;;11.56;100.00;100717.70;1644711;85;21216;-89
2023/04/09 13:25:22;;;;;;;13.72;9.25;;;;;;;11.47;100.00;100716.33;1701568;82;21230;-80
2023/04/09 13:28:31;;;;;;;15.00;9.60;;;;;;;11.43;100.00;100718.21;1652759;83;21569;-81
2023/04/09 13:31:40;;;;;;;15.23;9.50;;;;;;;11.50;100.00;100715.99;1657389;84;21287;-79
2023/04/09 13:37:14;;;;;;;18.02;11.73;;;;;;;11.56;100.00;100714.95;1619135;87;21334;-80
2023/04/09 13:40:20;;;;;;;22.48;11.83;;;;;;;11.61;100.00;100706.55;1621136;85;21274;-80
2023/04/09 13:43:36;;;;;;;17.27;12.60;;;;;;;11.62;100.00;100708.78;1631547;84;21229;-90
2023/04/09 13:46:45;;;;;;;22.90;13.65;;;;;;;11.58;100.00;100709.66;1619670;85;21253;-89
2023/04/09 13:49:52;;;;;;;24.35;14.70;;;;;;;11.56;100.00;100711.70;1630876;83;21794;-89
2023/04/09 13:53:01;;;;;;;16.62;12.85;;;;;;;11.44;100.00;100706.25;1647676;85;21804;-89
2023/04/09 13:55:29;;;;;;;23.12;14.87;;;;;;;11.52;100.00;100712.55;1642730;85;21324;-80
2023/04/09 13:58:34;;;;;;;20.65;14.13;;;;;;;11.59;100.00;100714.63;1638158;84;21212;-80
2023/04/09 14:01:41;;;;;;;18.92;13.88;;;;;;;11.51;100.00;100718.22;1689546;83;21256;-80
2023/04/09 14:04:47;;;;;;;21.75;13.22;;;;;;;11.58;100.00;100717.03;1685592;82;21224;-81
2023/04/09 14:07:52;;;;;;;18.73;12.45;;;;;;;11.68;100.00;100712.22;1669866;84;21240;-91
2023/04/09 14:10:58;;;;;;;20.77;13.62;;;;;;;11.62;100.00;100703.30;1698183;81;21811;-90
2023/04/09 14:14:03;;;;;;;17.12;11.78;;;;;;;11.60;100.00;100708.11;1684367;82;21192;-89
2023/04/09 14:17:09;;;;;;;23.92;11.80;;;;;;;11.63;100.00;100715.47;1702080;82;21188;-90
2023/04/09 14:20:15;;;;;;;20.72;12.03;;;;;;;11.59;100.00;100704.52;1696519;82;21177;-89
2023/04/09 14:23:21;;;;;;;18.95;12.30;;;;;;;11.54;100.00;100700.59;1674336;84;21204;-80
2023/04/09 14:26:28;;;;;;;18.73;11.53;;;;;;;11.52;100.00;100702.97;1698157;82;21252;-80
2023/04/09 14:29:35;;;;;;;17.02;12.25;;;;;;;11.49;100.00;100709.33;1665222;83;21209;-80
2023/04/09 14:32:41;;;;;;;18.90;12.15;;;;;;;11.44;100.00;100708.47;1638763;85;21201;-80
2023/04/09 14:35:48;;;;;;;15.35;11.83;;;;;;;11.41;100.00;100699.22;1699612;82;21249;-80
2023/04/09 14:38:54;;;;;;;19.35;12.30;;;;;;;11.36;100.00;100704.36;1703374;81;21770;-90
2023/04/09 14:42:01;;;;;;;16.42;12.13;;;;;;;11.41;100.00;100708.81;1682344;83;21199;-89
2023/04/09 14:45:06;;;;;;;16.75;12.00;;;;;;;11.29;100.00;100708.80;1627320;85;21269;-80
2023/04/09 14:48:13;;;;;;;18.42;11.68;;;;;;;11.27;100.00;100716.34;1672625;83;21213;-90
2023/04/09 14:51:19;;;;;;;19.02;11.22;;;;;;;11.24;100.00;100712.56;1634857;85;21193;-90
2023/04/09 14:54:25;;;;;;;20.57;11.33;;;;;;;11.18;100.00;100708.64;1600979;86;21324;-90
2023/04/09 14:57:31;;;;;;;21.93;11.60;;;;;;;11.19;100.00;100709.48;1652659;85;21277;-90
2023/04/09 15:00:40;;;;;;;15.98;11.80;;;;;;;11.11;100.00;100705.40;1670823;83;21737;-79
2023/04/09 15:03:47;;;;;;;18.60;12.78;;;;;;;11.09;100.00;100708.28;1672576;83;21307;-78
2023/04/09 15:06:52;;;;;;;16.90;11.08;;;;;;;11.06;100.00;100702.31;1671113;83;21235;-90
2023/04/09 15:09:58;;;;;;;24.00;12.43;;;;;;;11.09;100.00;100704.70;1649085;84;21213;-90
2023/04/09 15:13:04;;;;;;;28.42;12.18;;;;;;;11.06;100.00;100702.31;1673303;83;21172;-80
2023/04/09 15:16:11;;;;;;;22.02;13.38;;;;;;;11.20;100.00;100702.49;1671972;82;21240;-79
2023/04/09 15:19:16;;;;;;;17.32;12.03;;;;;;;11.03;100.00;100706.23;1678142;83;21741;-80
2023/04/09 15:22:22;;;;;;;21.05;12.35;;;;;;;10.98;100.00;100703.16;1674591;83;21207;-90
2023/04/09 15:27:54;;;;;;;15.28;10.78;;;;;;;11.08;100.00;100701.63;1673128;83;21758;-80
2023/04/09 15:31:01;;;;;;;20.23;12.63;;;;;;;11.09;100.00;100706.92;1662215;83;21231;-79
2023/04/09 15:34:07;;;;;;;15.90;11.40;;;;;;;11.12;100.00;100705.73;1668640;83;21196;-80
2023/04/09 15:37:14;;;;;;;24.23;12.55;;;;;;;10.97;100.00;100705.04;1681041;82;21210;-79
2023/04/09 15:40:22;;;;;;;22.45;12.60;;;;;;;10.90;100.00;100705.36;1685992;81;21230;-79
2023/04/09 15:46:00;;;;;;;25.15;14.25;;;;;;;10.83;100.00;100702.97;1670228;83;21217;-89
2023/04/09 15:49:06;;;;;;;21.07;13.70;;;;;;;10.85;100.00;100705.02;1656467;84;21205;-80
2023/04/09 15:52:14;;;;;;;28.62;14.10;;;;;;;10.87;100.00;100704.83;1667128;84;21230;-79
2023/04/09 15:55:22;;;;;;;22.93;14.18;;;;;;;10.89;100.00;100700.91;1677642;83;21225;-80
2023/04/09 15:57:50;;;;;;;24.65;14.53;;;;;;;10.77;100.00;100696.78;1665632;83;21725;-78
2023/04/09 16:00:56;;;;;;;23.85;13.93;;;;;;;10.66;100.00;100687.53;1660012;84;21759;-88
2023/04/09 16:04:03;;;;;;;21.85;14.03;;;;;;;10.59;100.00;100689.24;1676192;83;21245;-90
2023/04/09 16:07:10;;;;;;;25.15;13.95;;;;;;;10.60;100.00;100692.31;1669840;83;21189;-79
2023/04/09 16:10:17;;;;;;;26.48;15.13;;;;;;;10.64;100.00;100688.23;1646902;85;21262;-80
2023/04/09 16:13:23;;;;;;;25.02;14.38;;;;;;;10.83;100.00;100685.18;1668096;83;21205;-90
2023/04/09 16:16:29;;;;;;;25.88;14.55;;;;;;;10.80;100.00;100679.18;1650156;86;21210;-88
2023/04/09 16:19:36;;;;;;;22.30;14.55;;;;;;;10.67;100.00;100681.03;1672881;83;21749;-80
2023/04/09 16:22:42;;;;;;;21.40;14.25;;;;;;;10.64;100.00;100675.41;1655602;85;21240;-79
2023/04/09 16:25:47;;;;;;;25.00;14.15;;;;;;;10.78;100.00;100680.73;1675678;83;21229;-80